createdAt,value
2022-09-20T00:01:32.923Z,97948.00
2022-09-20T00:04:05.184Z,97961.00
2022-09-20T00:06:34.024Z,97967.97
2022-09-20T00:09:03.163Z,97955.03
2022-09-20T00:11:33.338Z,97972.22
2022-09-20T00:14:02.066Z,97980.84
2022-09-20T00:16:39.224Z,97931.41
2022-09-20T00:19:08.185Z,97951.59
2022-09-20T00:21:38.001Z,97971.22
2022-09-20T00:24:06.194Z,97967.97
2022-09-20T00:26:33.891Z,97964.53
2022-09-20T00:29:01.662Z,97978.44
2022-09-20T00:31:29.397Z,97975.19
2022-09-20T00:34:15.998Z,97993.31
2022-09-20T00:36:43.919Z,97991.78
2022-09-20T00:39:13.382Z,97998.69
2022-09-20T00:41:40.409Z,97998.91
2022-09-20T00:44:47.996Z,98009.25
2022-09-20T00:47:22.284Z,98016.34
2022-09-20T00:49:52.128Z,98018.22
2022-09-20T00:52:20.773Z,97994.81
2022-09-20T00:54:48.993Z,98018.00
2022-09-20T00:57:16.147Z,98020.56
2022-09-20T00:59:48.184Z,98017.22
2022-09-20T01:02:30.919Z,97991.53
2022-09-20T01:04:59.507Z,98015.69
2022-09-20T01:07:27.473Z,98019.97
2022-09-20T01:09:55.148Z,98021.72
2022-09-20T01:12:26.579Z,98039.06
2022-09-20T01:14:55.549Z,98043.47
2022-09-20T01:17:26.712Z,98034.69
2022-09-20T01:19:56.852Z,98040.81
2022-09-20T01:22:42.168Z,98034.81
2022-09-20T01:25:23.464Z,98052.13
2022-09-20T01:27:53.154Z,98045.31
2022-09-20T01:30:39.359Z,98064.28
2022-09-20T01:33:26.044Z,98059.22
2022-09-20T01:35:55.307Z,98044.53
2022-09-20T01:39:13.168Z,98014.06
2022-09-20T01:41:46.951Z,98064.53
2022-09-20T01:44:37.241Z,98038.94
2022-09-20T01:47:17.346Z,98070.66
2022-09-20T01:49:56.426Z,98080.13
2022-09-20T01:52:35.863Z,98094.13
2022-09-20T01:55:15.370Z,98089.88
2022-09-20T01:58:03.221Z,98089.88
2022-09-20T02:01:21.373Z,98087.25
2022-09-20T02:04:13.093Z,98096.00
2022-09-20T02:07:01.895Z,98078.78
2022-09-20T02:09:44.369Z,98099.44
2022-09-20T02:12:20.380Z,98097.66
2022-09-20T02:15:19.738Z,98102.97
2022-09-20T02:18:17.397Z,98124.84
2022-09-20T02:20:59.148Z,98119.59
2022-09-20T02:23:47.945Z,98105.16
2022-09-20T02:26:26.367Z,98127.59
2022-09-20T02:29:11.725Z,98130.03
2022-09-20T02:32:03.655Z,98136.97
2022-09-20T02:34:30.714Z,98147.47
2022-09-20T02:37:34.491Z,98139.78
2022-09-20T02:40:07.849Z,98160.53
2022-09-20T02:43:10.360Z,98149.25
2022-09-20T02:45:45.845Z,98160.69
2022-09-20T02:48:19.458Z,98168.66
2022-09-20T02:51:02.067Z,98171.44
2022-09-20T02:53:37.098Z,98168.28
2022-09-20T02:56:33.087Z,98181.28
2022-09-20T02:59:28.551Z,98193.69
2022-09-20T03:02:30.987Z,98196.31
2022-09-20T03:05:01.221Z,98167.22
2022-09-20T03:07:32.699Z,98205.72
2022-09-20T03:10:05.917Z,98205.56
2022-09-20T03:12:51.557Z,98223.91
2022-09-20T03:15:54.300Z,98218.59
2022-09-20T03:18:37.587Z,98226.59
2022-09-20T03:21:23.206Z,98247.25
2022-09-20T03:23:56.120Z,98245.44
2022-09-20T03:26:59.994Z,98231.56
2022-09-20T03:29:47.207Z,98246.13
2022-09-20T03:32:48.412Z,98251.28
2022-09-20T03:35:38.130Z,98226.31
2022-09-20T03:38:44.152Z,98254.66
2022-09-20T03:41:33.490Z,98259.00
2022-09-20T03:44:19.751Z,98266.81
2022-09-20T03:46:48.382Z,98275.44
2022-09-20T03:49:37.381Z,98277.03
2022-09-20T03:52:27.243Z,98281.31
2022-09-20T03:55:15.532Z,98280.38
2022-09-20T03:58:08.624Z,98277.66
2022-09-20T04:01:06.117Z,98283.69
2022-09-20T04:04:04.602Z,98285.56
2022-09-20T04:06:48.525Z,98302.66
2022-09-20T04:09:35.101Z,98251.22
2022-09-20T04:12:13.861Z,98296.44
2022-09-20T04:14:50.602Z,98293.69
2022-09-20T04:17:20.838Z,98297.97
2022-09-20T04:20:29.109Z,98320.84
2022-09-20T04:22:59.451Z,98323.41
2022-09-20T04:25:43.599Z,98310.44
2022-09-20T04:28:34.874Z,98327.34
2022-09-20T04:31:20.136Z,98335.94
2022-09-20T04:33:54.148Z,98324.63
2022-09-20T04:36:38.606Z,98345.88
2022-09-20T04:39:27.756Z,98342.69
2022-09-20T04:42:24.023Z,98352.00
2022-09-20T04:45:31.115Z,98355.38
2022-09-20T04:48:18.412Z,98360.13
2022-09-20T04:50:45.378Z,98360.44
2022-09-20T04:53:45.048Z,98365.50
2022-09-20T04:56:22.117Z,98369.72
2022-09-20T04:59:10.712Z,98361.91
2022-09-20T05:01:55.805Z,98373.91
2022-09-20T05:04:56.891Z,98378.94
2022-09-20T05:07:44.254Z,98387.44
2022-09-20T05:10:53.328Z,98394.72
2022-09-20T05:13:54.001Z,98389.47
2022-09-20T05:16:29.759Z,98403.44
2022-09-20T05:18:59.519Z,98409.34
2022-09-20T05:21:29.743Z,98406.50
2022-09-20T05:24:23.067Z,98415.06
2022-09-20T05:27:04.329Z,98421.66
2022-09-20T05:29:43.411Z,98417.38
2022-09-20T05:32:34.992Z,98423.69
2022-09-20T05:35:12.626Z,98427.97
2022-09-20T05:38:00.873Z,98437.28
2022-09-20T05:41:10.768Z,98427.88
2022-09-20T05:44:12.877Z,98445.22
2022-09-20T05:47:14.129Z,98448.06
2022-09-20T05:50:00.052Z,98442.53
2022-09-20T05:52:45.710Z,98436.31
2022-09-20T05:55:30.829Z,98453.94
2022-09-20T05:58:16.247Z,98453.94
2022-09-20T06:00:51.576Z,98449.03
2022-09-20T06:03:48.753Z,98456.75
2022-09-20T06:06:32.571Z,98457.81
2022-09-20T06:09:19.577Z,98463.00
2022-09-20T06:12:13.592Z,98476.00
2022-09-20T06:15:03.625Z,98480.16
2022-09-20T06:17:45.452Z,98476.75
2022-09-20T06:20:27.744Z,98485.84
2022-09-20T06:22:57.492Z,98479.91
2022-09-20T06:25:45.384Z,98485.31
2022-09-20T06:28:21.335Z,98491.97
2022-09-20T06:30:52.093Z,98486.09
2022-09-20T06:33:26.922Z,98490.13
2022-09-20T06:36:27.767Z,98500.44
2022-09-20T06:39:48.654Z,98493.03
2022-09-20T06:42:16.415Z,98505.22
2022-09-20T06:44:43.552Z,98508.16
2022-09-20T06:47:12.069Z,98512.41
2022-09-20T06:49:41.375Z,98497.88
2022-09-20T06:52:14.998Z,98517.16
2022-09-20T06:54:47.209Z,98507.72
2022-09-20T06:57:23.065Z,98513.59
2022-09-20T06:59:50.405Z,98506.56
2022-09-20T07:02:17.971Z,98527.88
2022-09-20T07:04:45.328Z,98529.16
2022-09-20T07:07:19.131Z,98531.81
2022-09-20T07:09:47.021Z,98537.47
2022-09-20T07:12:14.142Z,98529.97
2022-09-20T07:14:42.886Z,98542.38
2022-09-20T07:17:10.219Z,98539.78
2022-09-20T07:19:37.488Z,98535.34
2022-09-20T07:22:04.670Z,98534.72
2022-09-20T07:24:32.399Z,98525.59
2022-09-20T07:27:02.225Z,98542.47
2022-09-20T07:29:30.223Z,98557.94
2022-09-20T07:31:58.958Z,98549.69
2022-09-20T07:34:27.403Z,98551.06
2022-09-20T07:36:55.036Z,98572.69
2022-09-20T07:39:22.518Z,98551.47
2022-09-20T07:41:50.823Z,98572.47
2022-09-20T07:44:22.638Z,98563.56
2022-09-20T07:46:54.480Z,98559.59
2022-09-20T07:49:23.627Z,98562.13
2022-09-20T07:51:50.930Z,98554.72
2022-09-20T07:54:18.788Z,98556.31
2022-09-20T07:56:48.490Z,98560.25
2022-09-20T07:59:18.746Z,98559.91
2022-09-20T08:01:48.599Z,98562.19
2022-09-20T08:04:16.137Z,98554.38
2022-09-20T08:06:45.190Z,98565.19
2022-09-20T08:09:13.784Z,98557.03
2022-09-20T08:11:42.938Z,98571.75
2022-09-20T08:14:18.191Z,98566.66
2022-09-20T08:16:48.922Z,98592.41
2022-09-20T08:19:21.868Z,98584.09
2022-09-20T08:21:50.072Z,98590.50
2022-09-20T08:24:21.440Z,98570.16
2022-09-20T08:26:48.956Z,98596.44
2022-09-20T08:29:16.455Z,98581.00
2022-09-20T08:31:44.183Z,98604.63
2022-09-20T08:34:15.321Z,98604.47
2022-09-20T08:36:46.469Z,98600.41
2022-09-20T08:42:25.089Z,98601.44
2022-09-20T08:44:58.921Z,98608.59
2022-09-20T08:47:31.371Z,98594.72
2022-09-20T08:50:00.906Z,98602.56
2022-09-20T08:52:36.963Z,98604.88
2022-09-20T08:55:23.289Z,98584.56
2022-09-20T08:57:56.407Z,98606.19
2022-09-20T09:00:26.827Z,98599.94
2022-09-20T09:03:07.403Z,98610.97
2022-09-20T09:05:47.929Z,98592.59
2022-09-20T09:08:19.341Z,98613.81
2022-09-20T09:10:54.857Z,98614.78
2022-09-20T09:14:02.199Z,98622.59
2022-09-20T09:16:35.496Z,98635.06
2022-09-20T09:19:34.336Z,98606.28
2022-09-20T09:22:04.411Z,98624.16
2022-09-20T09:24:31.678Z,98637.50
2022-09-20T09:27:08.070Z,98634.97
2022-09-20T09:29:36.057Z,98648.31
2022-09-20T09:32:31.332Z,98655.16
2022-09-20T09:35:24.892Z,98659.50
2022-09-20T09:38:00.953Z,98660.53
2022-09-20T09:40:32.613Z,98644.84
2022-09-20T09:43:02.778Z,98654.97
2022-09-20T09:45:31.788Z,98656.19
2022-09-20T09:48:00.814Z,98657.06
2022-09-20T09:50:32.001Z,98642.03
2022-09-20T09:53:23.062Z,98671.75
2022-09-20T09:55:52.888Z,98670.88
2022-09-20T09:58:49.392Z,98670.13
2022-09-20T10:01:33.642Z,98676.81
2022-09-20T10:04:10.067Z,98668.72
2022-09-20T10:06:52.466Z,98662.28
2022-09-20T10:09:42.782Z,98673.41
2022-09-20T10:12:34.389Z,98668.13
2022-09-20T10:15:07.334Z,98676.97
2022-09-20T10:17:53.421Z,98680.56
2022-09-20T10:20:44.161Z,98680.94
2022-09-20T10:24:01.339Z,98666.09
2022-09-20T10:26:51.696Z,98679.13
2022-09-20T10:29:33.760Z,98629.47
2022-09-20T10:32:19.106Z,98689.22
2022-09-20T10:35:11.924Z,98694.91
2022-09-20T10:38:20.301Z,98693.81
2022-09-20T10:41:18.258Z,98698.63
2022-09-20T10:44:05.507Z,98707.72
2022-09-20T10:46:52.723Z,98706.25
2022-09-20T10:50:08.178Z,98707.31
2022-09-20T10:52:49.440Z,98708.97
2022-09-20T10:55:47.389Z,98724.25
2022-09-20T10:58:35.673Z,98714.66
2022-09-20T11:01:24.463Z,98729.81
2022-09-20T11:04:10.360Z,98731.38
2022-09-20T11:07:04.360Z,98722.50
2022-09-20T11:09:38.102Z,98723.28
2022-09-20T11:12:24.916Z,98731.47
2022-09-20T11:15:30.465Z,98753.94
2022-09-20T11:18:15.409Z,98757.03
2022-09-20T11:20:50.859Z,98753.06
2022-09-20T11:23:26.509Z,98772.50
2022-09-20T11:25:58.831Z,98750.53
2022-09-20T11:28:26.065Z,98775.03
2022-09-20T11:31:05.291Z,98795.78
2022-09-20T11:34:16.070Z,98782.25
2022-09-20T11:36:53.176Z,98754.53
2022-09-20T11:39:51.739Z,98791.00
2022-09-20T11:42:27.855Z,98791.56
2022-09-20T11:44:55.902Z,98782.91
2022-09-20T11:47:52.879Z,98792.50
2022-09-20T11:50:35.944Z,98801.75
2022-09-20T11:53:21.744Z,98806.38
2022-09-20T11:56:13.695Z,98804.09
2022-09-20T11:58:55.563Z,98792.03
2022-09-20T12:01:42.972Z,98786.38
2022-09-20T12:04:32.985Z,98804.69
2022-09-20T12:07:28.323Z,98786.50
2022-09-20T12:10:03.958Z,98802.91
2022-09-20T12:12:51.207Z,98799.44
2022-09-20T12:15:26.790Z,98810.84
2022-09-20T12:17:57.399Z,98813.69
2022-09-20T12:20:39.826Z,98793.22
2022-09-20T12:23:40.332Z,98818.00
2022-09-20T12:26:20.962Z,98820.25
2022-09-20T12:28:59.321Z,98813.50
2022-09-20T12:31:29.382Z,98820.31
2022-09-20T12:34:10.253Z,98822.03
2022-09-20T12:36:40.090Z,98809.41
2022-09-20T12:39:22.562Z,98815.47
2022-09-20T12:42:02.637Z,98824.56
2022-09-20T12:44:47.102Z,98828.81
2022-09-20T12:47:23.654Z,98815.34
2022-09-20T12:50:11.581Z,98807.00
2022-09-20T12:52:58.333Z,98827.47
2022-09-20T12:55:47.190Z,98832.91
2022-09-20T12:58:17.304Z,98825.44
2022-09-20T13:01:11.904Z,98832.91
2022-09-20T13:03:45.236Z,98817.94
2022-09-20T13:06:16.760Z,98834.13
2022-09-20T13:08:48.469Z,98834.63
2022-09-20T13:11:19.444Z,98842.34
2022-09-20T13:14:04.898Z,98830.16
2022-09-20T13:16:53.063Z,98844.84
2022-09-20T13:19:45.424Z,98848.75
2022-09-20T13:22:51.302Z,98846.03
2022-09-20T13:25:21.559Z,98842.00
2022-09-20T13:28:21.000Z,98832.00
2022-09-20T13:30:49.001Z,98839.44
2022-09-20T13:33:23.473Z,98856.34
2022-09-20T13:35:54.697Z,98851.38
2022-09-20T13:38:31.994Z,98852.09
2022-09-20T13:41:13.199Z,98842.97
2022-09-20T13:43:43.692Z,98840.09
2022-09-20T13:46:25.508Z,98840.09
2022-09-20T13:49:07.137Z,98860.38
2022-09-20T13:51:35.298Z,98849.69
2022-09-20T13:54:29.004Z,98853.56
2022-09-20T13:57:00.061Z,98847.78
2022-09-20T13:59:31.956Z,98866.34
2022-09-20T14:01:59.551Z,98846.94
2022-09-20T14:04:29.888Z,98867.22
2022-09-20T14:07:00.975Z,98868.31
2022-09-20T14:09:34.273Z,98867.84
2022-09-20T14:12:03.273Z,98875.19
2022-09-20T14:14:33.309Z,98870.34
2022-09-20T14:17:04.498Z,98853.41
2022-09-20T14:19:58.494Z,98871.97
2022-09-20T14:22:28.705Z,98873.31
2022-09-20T14:25:18.711Z,98880.31
2022-09-20T14:27:45.884Z,98881.25
2022-09-20T14:30:33.402Z,98883.75
2022-09-20T14:33:01.324Z,98863.00
2022-09-20T14:35:29.077Z,98893.06
2022-09-20T14:38:08.882Z,98895.59
2022-09-20T14:40:46.494Z,98900.50
2022-09-20T14:43:28.761Z,98888.19
2022-09-20T14:46:11.234Z,98880.41
2022-09-20T14:48:42.862Z,98910.75
2022-09-20T14:51:16.404Z,98904.94
2022-09-20T14:53:48.630Z,98901.97
2022-09-20T14:56:17.019Z,98898.25
2022-09-20T14:59:03.450Z,98918.69
2022-09-20T15:01:32.068Z,98913.81
2022-09-20T15:03:59.408Z,98909.78
2022-09-20T15:06:26.507Z,98899.84
2022-09-20T15:08:56.594Z,98907.16
2022-09-20T15:11:24.084Z,98898.97
2022-09-20T15:13:51.065Z,98921.53
2022-09-20T15:16:20.674Z,98920.00
2022-09-20T15:18:48.003Z,98926.28
2022-09-20T15:21:15.189Z,98930.19
2022-09-20T15:23:42.496Z,98924.38
2022-09-20T15:26:13.342Z,98935.13
2022-09-20T15:28:40.406Z,98931.16
2022-09-20T15:31:07.671Z,98938.41
2022-09-20T15:33:34.758Z,98935.16
2022-09-20T15:36:03.536Z,98942.31
2022-09-20T15:38:30.810Z,98942.75
2022-09-20T15:41:00.880Z,98954.28
2022-09-20T15:43:30.415Z,98959.78
2022-09-20T15:46:03.419Z,98948.88
2022-09-20T15:48:30.914Z,98951.69
2022-09-20T15:51:02.048Z,98964.00
2022-09-20T15:53:32.033Z,98959.84
2022-09-20T15:56:03.057Z,98945.44
2022-09-20T15:58:35.902Z,98968.09
2022-09-20T16:01:06.106Z,98982.25
2022-09-20T16:03:34.662Z,98988.50
2022-09-20T16:06:07.079Z,98974.78
2022-09-20T16:08:40.769Z,98986.19
2022-09-20T16:11:10.920Z,98989.03
2022-09-20T16:13:38.936Z,98978.84
2022-09-20T16:16:08.709Z,98941.81
2022-09-20T16:18:55.827Z,98992.91
2022-09-20T16:21:23.470Z,98957.50
2022-09-20T16:23:56.307Z,98989.56
2022-09-20T16:26:26.187Z,98967.19
2022-09-20T16:28:55.877Z,98989.72
2022-09-20T16:31:34.890Z,98989.78
2022-09-20T16:34:04.172Z,98992.53
2022-09-20T16:36:34.730Z,98992.59
2022-09-20T16:39:03.332Z,98996.94
2022-09-20T16:41:32.561Z,98991.00
2022-09-20T16:43:59.977Z,98998.88
2022-09-20T16:46:28.053Z,98994.66
2022-09-20T16:48:58.171Z,98992.22
2022-09-20T16:51:30.171Z,98982.78
2022-09-20T16:53:57.260Z,99008.81
2022-09-20T16:56:30.035Z,99014.97
2022-09-20T16:58:57.321Z,99003.84
2022-09-20T17:01:24.502Z,99004.75
2022-09-20T17:03:52.174Z,98994.41
2022-09-20T17:06:19.849Z,99003.16
2022-09-20T17:08:48.784Z,99007.50
2022-09-20T17:11:19.626Z,99015.44
2022-09-20T17:13:47.489Z,99001.63
2022-09-20T17:16:16.676Z,99013.78
2022-09-20T17:18:43.892Z,99017.38
2022-09-20T17:21:14.051Z,99018.28
2022-09-20T17:23:51.117Z,99008.75
2022-09-20T17:26:33.385Z,99024.44
2022-09-20T17:29:02.435Z,99025.34
2022-09-20T17:31:35.777Z,99021.91
2022-09-20T17:34:05.136Z,99012.44
2022-09-20T17:36:34.854Z,99034.16
2022-09-20T17:39:04.446Z,99023.78
2022-09-20T17:41:33.848Z,99043.78
2022-09-20T17:44:08.312Z,99021.28
2022-09-20T17:46:37.831Z,99030.84
2022-09-20T17:49:10.264Z,99023.91
2022-09-20T17:51:40.685Z,99029.22
2022-09-20T17:54:11.003Z,99025.75
2022-09-20T17:56:38.773Z,99030.13
2022-09-20T17:59:10.150Z,99028.47
2022-09-20T18:01:42.082Z,98993.94
2022-09-20T18:04:10.291Z,99004.34
2022-09-20T18:06:44.745Z,99005.28
2022-09-20T18:09:15.816Z,99038.28
2022-09-20T18:11:49.655Z,99046.16
2022-09-20T18:14:27.709Z,99023.69
2022-09-20T18:16:58.185Z,99046.25
2022-09-20T18:19:32.946Z,99048.91
2022-09-20T18:22:02.411Z,99046.34
2022-09-20T18:24:30.531Z,99036.81
2022-09-20T18:26:57.811Z,99040.31
2022-09-20T18:29:25.239Z,99030.81
2022-09-20T18:31:54.667Z,99028.25
2022-09-20T18:34:26.927Z,99042.91
2022-09-20T18:36:56.331Z,99036.06
2022-09-20T18:39:25.340Z,99046.47
2022-09-20T18:41:53.436Z,99036.97
2022-09-20T18:44:22.178Z,99057.84
2022-09-20T18:46:51.381Z,99062.22
2022-09-20T18:49:18.679Z,99047.50
2022-09-20T18:51:47.513Z,99064.88
2022-09-20T18:54:15.547Z,99058.81
2022-09-20T18:56:45.098Z,99056.25
2022-09-20T18:59:21.165Z,99071.00
2022-09-20T19:02:11.919Z,99064.97
2022-09-20T19:05:05.843Z,99067.56
2022-09-20T19:07:48.706Z,99078.03
2022-09-20T19:10:42.276Z,99072.81
2022-09-20T19:13:09.152Z,99076.34
2022-09-20T19:16:11.369Z,99074.59
2022-09-20T19:19:03.147Z,99077.25
2022-09-20T19:22:17.687Z,99072.94
2022-09-20T19:25:01.508Z,99076.41
2022-09-20T19:27:30.870Z,99072.06
2022-09-20T19:29:58.205Z,99074.66
2022-09-20T19:32:28.263Z,99076.41
2022-09-20T19:35:02.030Z,99075.53
2022-09-20T19:38:04.249Z,99080.78
2022-09-20T19:41:09.486Z,99083.44
2022-09-20T19:44:04.459Z,99089.50
2022-09-20T19:47:01.446Z,99089.53
2022-09-20T19:49:51.300Z,99079.97
2022-09-20T19:52:19.059Z,99094.72
2022-09-20T19:54:46.881Z,99093.00
2022-09-20T19:57:29.233Z,99095.63
2022-09-20T19:59:58.088Z,99091.31
2022-09-20T20:02:25.400Z,99093.91
2022-09-20T20:04:54.058Z,99093.06
2022-09-20T20:07:38.701Z,99106.06
2022-09-20T20:10:21.039Z,99106.06
2022-09-20T20:13:33.919Z,99107.81
2022-09-20T20:16:43.930Z,99098.31
2022-09-20T20:19:39.148Z,99107.84
2022-09-20T20:22:30.494Z,99108.72
2022-09-20T20:25:03.918Z,99100.94
2022-09-20T20:27:41.841Z,99079.25
2022-09-20T20:30:12.834Z,99100.94
2022-09-20T20:32:42.564Z,99096.63
2022-09-20T20:35:15.173Z,99094.03
2022-09-20T20:37:42.594Z,99105.28
2022-09-20T20:40:14.988Z,99112.25
2022-09-20T20:42:42.974Z,99101.81
2022-09-20T20:45:11.892Z,99094.88
2022-09-20T20:47:42.759Z,99093.16
2022-09-20T20:50:12.903Z,99097.47
2022-09-20T20:52:40.126Z,99081.88
2022-09-20T20:55:07.854Z,99091.41
2022-09-20T20:57:36.195Z,99094.03
2022-09-20T21:00:03.782Z,99082.75
2022-09-20T21:02:32.908Z,99101.84
2022-09-20T21:05:01.354Z,99093.16
2022-09-20T21:07:28.799Z,99087.13
2022-09-20T21:09:55.812Z,99114.03
2022-09-20T21:12:23.807Z,99102.78
2022-09-20T21:14:50.883Z,99100.16
2022-09-20T21:17:18.055Z,99115.78
2022-09-20T21:19:45.157Z,99099.28
2022-09-20T21:22:12.206Z,99089.75
2022-09-20T21:24:39.203Z,99088.00
2022-09-20T21:27:06.210Z,99090.63
2022-09-20T21:29:33.832Z,99092.38
2022-09-20T21:32:00.972Z,99094.97
2022-09-20T21:34:27.916Z,99097.56
2022-09-20T21:36:55.015Z,99120.13
2022-09-20T21:39:21.970Z,99100.16
2022-09-20T21:41:49.181Z,99099.31
2022-09-20T21:44:17.723Z,99104.50
2022-09-20T21:46:44.982Z,99085.44
2022-09-20T21:49:12.629Z,99096.72
2022-09-20T21:51:42.831Z,99094.13
2022-09-20T21:54:10.185Z,99109.75
2022-09-20T21:56:38.641Z,99101.94
2022-09-20T21:59:07.225Z,99113.22
2022-09-20T22:01:37.036Z,99095.00
2022-09-20T22:04:07.094Z,99090.69
2022-09-20T22:06:42.471Z,99099.34
2022-09-20T22:09:12.304Z,99113.22
2022-09-20T22:11:44.808Z,99106.25
2022-09-20T22:14:14.036Z,99104.53
2022-09-20T22:16:43.326Z,99100.25
2022-09-20T22:19:12.901Z,99106.28
2022-09-20T22:21:46.841Z,99113.25
2022-09-20T22:24:15.321Z,99108.03
2022-09-20T22:26:50.501Z,99127.13
2022-09-20T22:29:18.744Z,99123.69
2022-09-20T22:31:47.730Z,99128.00
2022-09-20T22:34:17.440Z,99125.41
2022-09-20T22:36:46.627Z,99124.53
2022-09-20T22:39:14.843Z,99126.28
2022-09-20T22:41:42.969Z,99125.41
2022-09-20T22:44:11.145Z,99122.81
2022-09-20T22:46:38.987Z,99124.53
2022-09-20T22:49:07.827Z,99124.53
2022-09-20T22:51:35.709Z,99119.31
2022-09-20T22:54:08.837Z,99121.09
2022-09-20T22:56:36.448Z,99122.81
2022-09-20T22:59:08.616Z,99121.06
2022-09-20T23:01:38.758Z,99115.00
2022-09-20T23:04:09.162Z,99111.50
2022-09-20T23:06:39.461Z,99099.38
2022-09-20T23:09:09.415Z,99121.94
2022-09-20T23:11:38.077Z,99113.25
2022-09-20T23:14:06.303Z,99121.06
2022-09-20T23:16:35.809Z,99123.66
2022-09-20T23:19:04.937Z,99122.78
2022-09-20T23:21:32.713Z,99114.97
2022-09-20T23:24:02.161Z,99121.09
2022-09-20T23:26:32.067Z,99117.59
2022-09-20T23:29:01.430Z,99113.28
2022-09-20T23:31:29.916Z,99117.59
2022-09-20T23:33:59.341Z,99123.66
2022-09-20T23:36:28.938Z,99134.94
2022-09-20T23:38:59.982Z,99121.09
2022-09-20T23:41:28.544Z,99128.88
2022-09-20T23:43:56.086Z,99138.41
2022-09-20T23:46:25.364Z,99121.94
2022-09-20T23:48:52.948Z,99130.63
2022-09-20T23:51:23.602Z,99146.22
2022-09-20T23:53:52.271Z,99137.56
2022-09-20T23:56:20.935Z,99122.81
2022-09-20T23:58:48.815Z,99142.75
